createdAt,value
2018-08-13T00:00:08.596Z,0
2018-08-13T00:01:18.161Z,0
2018-08-13T00:02:27.994Z,0
2018-08-13T00:03:38.064Z,0
2018-08-13T00:04:48.142Z,0
2018-08-13T00:05:57.951Z,0
2018-08-13T00:07:08.136Z,0
2018-08-13T00:08:18.250Z,0
2018-08-13T00:09:28.313Z,0
2018-08-13T00:10:38.392Z,0
2018-08-13T00:11:48.488Z,0
2018-08-13T00:12:58.545Z,0
2018-08-13T00:14:08.366Z,0
2018-08-13T00:15:18.465Z,0
2018-08-13T00:16:28.541Z,0
2018-08-13T00:17:38.981Z,0
2018-08-13T00:18:49.227Z,0
2018-08-13T00:19:59.294Z,0
2018-08-13T00:21:09.104Z,0
2018-08-13T00:22:18.924Z,0
2018-08-13T00:23:29.002Z,0
2018-08-13T00:24:38.551Z,0
2018-08-13T00:25:48.647Z,0
2018-08-13T00:26:58.817Z,0
2018-08-13T00:28:08.888Z,0
2018-08-13T00:29:18.969Z,0
2018-08-13T00:30:29.048Z,0
2018-08-13T00:31:39.134Z,0
2018-08-13T00:32:49.253Z,0
2018-08-13T00:33:59.349Z,0
2018-08-13T00:35:09.439Z,0
2018-08-13T00:36:19.536Z,0
2018-08-13T00:37:29.612Z,0
2018-08-13T00:38:39.724Z,0
2018-08-13T00:39:49.824Z,0
2018-08-13T00:40:59.904Z,0
2018-08-13T00:42:10.005Z,0
2018-08-13T00:43:19.805Z,0
2018-08-13T00:44:29.676Z,0
2018-08-13T00:45:39.774Z,0
2018-08-13T00:46:49.619Z,0
2018-08-13T00:47:59.693Z,0
2018-08-13T00:49:09.798Z,0
2018-08-13T00:50:19.354Z,0
2018-08-13T00:51:29.418Z,0
2018-08-13T00:52:39.509Z,0
2018-08-13T00:53:49.315Z,0
2018-08-13T00:54:59.396Z,0
2018-08-13T00:56:09.461Z,0
2018-08-13T00:57:19.550Z,0
2018-08-13T00:58:29.645Z,0
2018-08-13T00:59:39.971Z,0
2018-08-13T01:00:49.799Z,0
2018-08-13T01:01:59.929Z,0
2018-08-13T01:03:10.025Z,0
2018-08-13T01:04:20.119Z,0
2018-08-13T01:05:29.957Z,0
2018-08-13T01:06:40.072Z,0
2018-08-13T01:07:50.406Z,0
2018-08-13T01:09:00.395Z,0
2018-08-13T01:10:10.472Z,0
2018-08-13T01:11:20.532Z,0
2018-08-13T01:12:30.628Z,0
2018-08-13T01:13:40.446Z,0
2018-08-13T01:14:50.559Z,0
2018-08-13T01:16:00.435Z,0
2018-08-13T01:17:10.530Z,0
2018-08-13T01:18:20.338Z,0
2018-08-13T01:19:30.446Z,0
2018-08-13T01:20:40.516Z,0
2018-08-13T01:21:50.322Z,0
2018-08-13T01:23:00.404Z,0
2018-08-13T01:24:10.482Z,0
2018-08-13T01:25:20.559Z,0
2018-08-13T01:26:30.401Z,0
2018-08-13T01:27:40.207Z,0
2018-08-13T01:28:50.046Z,0
2018-08-13T01:30:00.133Z,0
2018-08-13T01:31:10.230Z,0
2018-08-13T01:32:19.781Z,0
2018-08-13T01:33:29.879Z,0
2018-08-13T01:34:39.961Z,0
2018-08-13T01:35:50.057Z,0
2018-08-13T01:37:00.411Z,0
2018-08-13T01:38:10.250Z,0
2018-08-13T01:39:19.818Z,0
2018-08-13T01:40:29.947Z,0
2018-08-13T01:41:39.758Z,0
2018-08-13T01:42:49.950Z,0
2018-08-13T01:43:59.764Z,0
2018-08-13T01:45:09.839Z,0
2018-08-13T01:46:19.644Z,0
2018-08-13T01:47:29.714Z,0
2018-08-13T01:48:39.791Z,0
2018-08-13T01:49:49.349Z,0
2018-08-13T01:50:59.430Z,0
2018-08-13T01:52:09.500Z,0
2018-08-13T01:53:19.574Z,0
2018-08-13T01:54:29.712Z,0
2018-08-13T01:55:39.807Z,0
2018-08-13T01:56:49.877Z,0
2018-08-13T01:57:59.965Z,0
2018-08-13T01:59:09.518Z,0
2018-08-13T02:00:19.689Z,0
2018-08-13T02:01:30.032Z,0
2018-08-13T02:02:40.197Z,0
2018-08-13T02:03:50.268Z,0
2018-08-13T02:05:00.437Z,0
2018-08-13T02:06:10.516Z,0
2018-08-13T02:07:20.599Z,0
2018-08-13T02:08:30.903Z,0
2018-08-13T02:09:40.712Z,0
2018-08-13T02:10:50.785Z,0
2018-08-13T02:12:00.878Z,0
2018-08-13T02:13:10.713Z,0
2018-08-13T02:14:20.783Z,0
2018-08-13T02:15:30.857Z,0
2018-08-13T02:16:40.925Z,0
2018-08-13T02:17:51.029Z,0
2018-08-13T02:19:01.125Z,0
2018-08-13T02:20:11.200Z,0
2018-08-13T02:21:21.025Z,0
2018-08-13T02:22:31.089Z,0
2018-08-13T02:23:41.154Z,0
2018-08-13T02:24:50.966Z,0
2018-08-13T02:26:01.035Z,0
2018-08-13T02:27:10.854Z,0
2018-08-13T02:28:20.953Z,0
2018-08-13T02:29:31.023Z,0
2018-08-13T02:30:41.139Z,0
2018-08-13T02:31:51.229Z,0
2018-08-13T02:33:01.321Z,0
2018-08-13T02:34:11.428Z,0
2018-08-13T02:35:21.544Z,0
2018-08-13T02:36:31.629Z,0
2018-08-13T02:37:41.709Z,0
2018-08-13T02:38:52.086Z,0
2018-08-13T02:40:02.373Z,0
2018-08-13T02:41:12.511Z,0
2018-08-13T02:42:22.328Z,0
2018-08-13T02:43:32.457Z,0
2018-08-13T02:44:42.588Z,0
2018-08-13T02:45:52.457Z,0
2018-08-13T02:47:02.828Z,0
2018-08-13T02:48:12.403Z,0
2018-08-13T02:49:22.208Z,0
2018-08-13T02:50:32.021Z,0
2018-08-13T02:51:41.829Z,0
2018-08-13T02:52:51.659Z,0
2018-08-13T02:54:01.943Z,0
2018-08-13T02:55:11.785Z,0
2018-08-13T02:56:21.898Z,0
2018-08-13T02:57:31.794Z,0
2018-08-13T02:58:41.877Z,0
2018-08-13T02:59:51.423Z,0
2018-08-13T03:01:01.511Z,0
2018-08-13T03:02:11.595Z,0
2018-08-13T03:35:04.944Z,44
2018-08-13T03:36:15.045Z,52
2018-08-13T03:37:25.103Z,60
2018-08-13T03:38:35.189Z,64
2018-08-13T03:39:45.283Z,76
2018-08-13T03:40:55.091Z,80
2018-08-13T03:42:04.955Z,96
2018-08-13T03:43:14.751Z,104
2018-08-13T03:44:24.836Z,116
2018-08-13T03:45:34.898Z,132
2018-08-13T03:46:45.022Z,148
2018-08-13T03:47:55.100Z,160
2018-08-13T03:49:05.173Z,176
2018-08-13T03:50:15.283Z,196
2018-08-13T03:51:25.352Z,212
2018-08-13T03:52:35.425Z,236
2018-08-13T03:53:45.377Z,256
2018-08-13T03:54:55.470Z,276
2018-08-13T03:56:05.549Z,300
2018-08-13T03:57:15.670Z,324
2018-08-13T03:58:25.800Z,348
2018-08-13T03:59:35.885Z,372
2018-08-13T04:00:45.688Z,396
2018-08-13T04:01:55.748Z,424
2018-08-13T04:03:05.577Z,452
2018-08-13T04:04:15.702Z,480
2018-08-13T04:05:25.569Z,504
2018-08-13T04:06:35.700Z,532
2018-08-13T04:07:45.782Z,560
2018-08-13T04:08:55.869Z,588
2018-08-13T04:10:06.191Z,616
2018-08-13T04:11:16.314Z,648
2018-08-13T04:12:26.391Z,676
2018-08-13T04:13:36.470Z,700
2018-08-13T04:14:46.541Z,736
2018-08-13T04:15:56.669Z,760
2018-08-13T04:17:06.976Z,796
2018-08-13T04:18:17.073Z,860
2018-08-13T04:19:27.143Z,840
2018-08-13T04:20:36.984Z,880
2018-08-13T04:21:47.076Z,936
2018-08-13T04:22:56.884Z,932
2018-08-13T04:24:06.964Z,960
2018-08-13T04:25:17.288Z,992
2018-08-13T04:26:27.360Z,1020
2018-08-13T04:27:37.450Z,1552
2018-08-13T04:28:47.531Z,2452
2018-08-13T04:29:57.615Z,2768
2018-08-13T04:31:07.738Z,2352
2018-08-13T04:32:17.808Z,2580
2018-08-13T04:33:27.977Z,4544
2018-08-13T04:34:37.570Z,5560
2018-08-13T04:35:47.641Z,3720
2018-08-13T04:36:57.437Z,1900
2018-08-13T04:38:08.085Z,2940
2018-08-13T04:39:18.160Z,2200
2018-08-13T04:40:28.251Z,1848
2018-08-13T04:41:38.366Z,1676
2018-08-13T04:42:48.455Z,1588
2018-08-13T04:43:58.527Z,1708
2018-08-13T04:45:08.613Z,1692
2018-08-13T04:46:18.429Z,3240
2018-08-13T04:47:28.254Z,3936
2018-08-13T04:48:38.358Z,2624
2018-08-13T04:49:48.176Z,1984
2018-08-13T04:50:58.266Z,2840
2018-08-13T04:52:08.441Z,3652
2018-08-13T04:53:18.676Z,5476
2018-08-13T04:54:28.743Z,5112
2018-08-13T04:55:38.809Z,7376
2018-08-13T04:56:48.632Z,9728
2018-08-13T04:57:58.445Z,10064
2018-08-13T04:59:08.815Z,10240
2018-08-13T05:00:18.914Z,10484
2018-08-13T05:01:29.011Z,10728
2018-08-13T05:02:39.273Z,10744
2018-08-13T05:03:49.081Z,10580
2018-08-13T05:04:58.897Z,10460
2018-08-13T05:06:08.772Z,10680
2018-08-13T05:07:19.021Z,10796
2018-08-13T05:08:29.395Z,10800
2018-08-13T05:09:39.220Z,10676
2018-08-13T05:10:49.038Z,10572
2018-08-13T05:11:59.109Z,10712
2018-08-13T05:13:09.203Z,10772
2018-08-13T05:14:19.032Z,10732
2018-08-13T05:15:29.121Z,10868
2018-08-13T05:16:38.943Z,10984
2018-08-13T05:17:49.834Z,10940
2018-08-13T05:18:59.655Z,11076
2018-08-13T05:20:09.480Z,11028
2018-08-13T05:21:19.886Z,10856
2018-08-13T05:22:30.192Z,10848
2018-08-13T05:23:40.318Z,10880
2018-08-13T05:24:50.134Z,10884
2018-08-13T05:25:59.694Z,10800
2018-08-13T05:27:09.798Z,10756
2018-08-13T05:28:19.623Z,10880
2018-08-13T05:29:29.786Z,10828
2018-08-13T05:30:39.864Z,10740
2018-08-13T05:31:49.683Z,10872
2018-08-13T05:32:59.759Z,10740
2018-08-13T05:34:09.889Z,10696
2018-08-13T05:35:20.021Z,10652
2018-08-13T05:36:30.098Z,10524
2018-08-13T05:37:40.187Z,10448
2018-08-13T05:38:50.273Z,10252
2018-08-13T05:40:00.091Z,9980
2018-08-13T05:41:10.179Z,9944
2018-08-13T05:42:20.253Z,9952
2018-08-13T05:43:30.324Z,9828
2018-08-13T05:44:40.436Z,9672
2018-08-13T05:45:50.526Z,9576
2018-08-13T05:47:00.616Z,9564
2018-08-13T05:48:10.437Z,9552
2018-08-13T05:49:20.522Z,9488
2018-08-13T05:50:30.605Z,9412
2018-08-13T05:51:40.441Z,9444
2018-08-13T05:52:50.607Z,9368
2018-08-13T05:54:00.799Z,9264
2018-08-13T05:55:10.886Z,9156
2018-08-13T05:56:20.959Z,9020
2018-08-13T05:57:31.262Z,8744
2018-08-13T05:58:41.196Z,6216
2018-08-13T05:59:51.267Z,3364
2018-08-13T06:01:01.080Z,2784
2018-08-13T06:02:11.144Z,2748
2018-08-13T06:03:21.522Z,2752
2018-08-13T06:04:31.716Z,2764
2018-08-13T06:05:41.783Z,2772
2018-08-13T06:06:51.862Z,2784
2018-08-13T06:08:01.973Z,2792
2018-08-13T06:09:12.048Z,2804
2018-08-13T06:10:22.180Z,2816
2018-08-13T06:11:32.753Z,2828
2018-08-13T06:12:42.860Z,2836
2018-08-13T06:13:52.944Z,2836
2018-08-13T06:15:03.294Z,2844
2018-08-13T06:16:13.416Z,2852
2018-08-13T06:17:23.486Z,2860
2018-08-13T06:18:33.312Z,2872
2018-08-13T06:19:43.133Z,2884
2018-08-13T06:20:53.215Z,2888
2018-08-13T06:22:03.290Z,2896
2018-08-13T06:23:13.125Z,2900
2018-08-13T06:24:23.293Z,2912
2018-08-13T06:25:33.629Z,2928
2018-08-13T06:26:43.766Z,2980
2018-08-13T06:27:53.843Z,3096
2018-08-13T06:29:03.936Z,3044
2018-08-13T06:30:14.368Z,3360
2018-08-13T06:31:24.658Z,3604
2018-08-13T06:32:34.780Z,3592
2018-08-13T06:33:44.913Z,3564
2018-08-13T06:34:54.982Z,3544
2018-08-13T06:36:05.226Z,3516
2018-08-13T06:37:15.668Z,3476
2018-08-13T06:38:25.780Z,3436
2018-08-13T06:39:35.913Z,3416
2018-08-13T06:40:46.002Z,3384
2018-08-13T06:41:55.850Z,3364
2018-08-13T06:43:05.969Z,3336
2018-08-13T06:44:15.783Z,3272
2018-08-13T06:45:25.931Z,3148
2018-08-13T06:46:36.030Z,3100
2018-08-13T06:47:46.128Z,3088
2018-08-13T06:48:55.944Z,3084
2018-08-13T06:50:06.018Z,3088
2018-08-13T06:51:15.844Z,3100
2018-08-13T06:52:25.922Z,3104
2018-08-13T06:53:35.999Z,3112
2018-08-13T06:54:46.092Z,3128
2018-08-13T06:55:56.167Z,3136
2018-08-13T06:57:06.257Z,3144
2018-08-13T06:58:16.346Z,3168
2018-08-13T06:59:26.418Z,3184
2018-08-13T07:00:36.482Z,3200
2018-08-13T07:01:46.353Z,3220
2018-08-13T07:02:56.183Z,3236
2018-08-13T07:04:06.279Z,3248
2018-08-13T07:05:16.145Z,3264
2018-08-13T07:06:25.430Z,3276
2018-08-13T07:07:35.256Z,3292
2018-08-13T07:08:45.349Z,3308
2018-08-13T07:09:55.445Z,3328
2018-08-13T07:11:05.303Z,3348
2018-08-13T07:12:15.377Z,3364
2018-08-13T07:13:25.462Z,3368
2018-08-13T07:14:35.808Z,3384
2018-08-13T07:15:46.152Z,3408
2018-08-13T07:16:56.393Z,3416
2018-08-13T07:18:06.212Z,3436
2018-08-13T07:19:16.281Z,3452
2018-08-13T07:20:26.093Z,3464
2018-08-13T07:21:35.958Z,3480
2018-08-13T07:22:46.056Z,3500
2018-08-13T07:23:55.866Z,3512
2018-08-13T07:25:05.964Z,3528
2018-08-13T07:26:16.047Z,3540
2018-08-13T07:27:26.190Z,3556
2018-08-13T07:28:36.290Z,3576
2018-08-13T07:29:46.368Z,3596
2018-08-13T07:30:56.394Z,3608
2018-08-13T07:32:06.534Z,3616
2018-08-13T07:33:16.378Z,3628
2018-08-13T07:34:27.035Z,3644
2018-08-13T07:35:37.197Z,3660
2018-08-13T07:36:47.290Z,3672
2018-08-13T07:37:57.461Z,3692
2018-08-13T07:39:08.058Z,3708
2018-08-13T07:40:18.262Z,3724
2018-08-13T07:41:28.114Z,3732
2018-08-13T07:42:38.209Z,3744
2018-08-13T07:43:48.488Z,3768
2018-08-13T07:44:58.649Z,3784
2018-08-13T07:46:08.746Z,3788
2018-08-13T07:47:18.853Z,3800
2018-08-13T07:48:28.944Z,3812
2018-08-13T07:49:39.112Z,3820
2018-08-13T07:50:49.464Z,3828
2018-08-13T07:51:59.418Z,3840
2018-08-13T07:53:10.035Z,3848
2018-08-13T07:54:21.282Z,3856
2018-08-13T07:55:31.383Z,3872
2018-08-13T07:56:41.240Z,3884
2018-08-13T07:57:51.338Z,3888
2018-08-13T07:59:01.453Z,3908
2018-08-13T08:00:11.945Z,3920
2018-08-13T08:01:22.073Z,3936
2018-08-13T08:02:32.200Z,3956
2018-08-13T08:03:42.045Z,3964
2018-08-13T08:04:52.138Z,3968
2018-08-13T08:06:02.267Z,3968
2018-08-13T08:07:12.374Z,3980
2018-08-13T08:08:22.470Z,3988
2018-08-13T08:09:32.339Z,3988
2018-08-13T08:10:42.438Z,4012
2018-08-13T08:11:52.037Z,4032
2018-08-13T08:13:01.878Z,4044
2018-08-13T08:14:11.962Z,4056
2018-08-13T08:15:22.061Z,4060
2018-08-13T08:16:32.165Z,4072
2018-08-13T08:17:42.048Z,4084
2018-08-13T08:18:52.149Z,4084
2018-08-13T08:20:02.661Z,4088
2018-08-13T08:21:12.806Z,4092
2018-08-13T08:22:22.964Z,4100
2018-08-13T08:23:33.055Z,4096
2018-08-13T08:24:43.130Z,4104
2018-08-13T08:25:52.970Z,4112
2018-08-13T08:27:03.307Z,4112
2018-08-13T08:28:13.414Z,4124
2018-08-13T08:29:23.721Z,4136
2018-08-13T08:30:34.085Z,4136
2018-08-13T08:31:43.929Z,4148
2018-08-13T08:32:54.001Z,4156
2018-08-13T08:34:04.106Z,4180
2018-08-13T08:35:14.288Z,4184
2018-08-13T08:36:24.359Z,4200
2018-08-13T08:37:34.507Z,4216
2018-08-13T08:38:44.627Z,4212
2018-08-13T08:39:54.741Z,4208
2018-08-13T08:41:04.861Z,4216
2018-08-13T08:42:15.183Z,4236
2018-08-13T08:43:25.272Z,4236
2018-08-13T08:44:35.110Z,4248
2018-08-13T08:45:45.216Z,4260
2018-08-13T08:46:55.516Z,4268
2018-08-13T08:48:05.835Z,4268
2018-08-13T08:49:15.915Z,4288
2018-08-13T08:50:25.989Z,4292
2018-08-13T08:51:36.092Z,4300
2018-08-13T08:52:46.295Z,4304
2018-08-13T08:53:56.370Z,4312
2018-08-13T08:55:06.200Z,4336
2018-08-13T08:56:16.318Z,4344
2018-08-13T08:57:26.383Z,4356
2018-08-13T08:58:51.327Z,4364
2018-08-13T09:00:01.145Z,4368
2018-08-13T09:01:11.212Z,4376
2018-08-13T09:02:21.568Z,4392
2018-08-13T09:03:31.675Z,4404
2018-08-13T09:04:42.814Z,4412
2018-08-13T09:05:53.036Z,4416
2018-08-13T09:07:03.016Z,4436
2018-08-13T09:08:13.099Z,4444
2018-08-13T09:09:22.896Z,4448
2018-08-13T09:10:33.067Z,4456
2018-08-13T09:11:43.146Z,4468
2018-08-13T09:12:53.218Z,4488
2018-08-13T09:14:03.357Z,4480
2018-08-13T09:15:13.524Z,4500
2018-08-13T09:16:23.343Z,4516
2018-08-13T09:17:33.174Z,4500
2018-08-13T09:18:43.299Z,4528
2018-08-13T09:19:53.399Z,4548
2018-08-13T09:21:03.299Z,4548
2018-08-13T09:22:13.137Z,4544
2018-08-13T09:23:23.216Z,4576
2018-08-13T09:24:33.248Z,4596
2018-08-13T09:25:43.738Z,4592
2018-08-13T09:26:53.808Z,4620
2018-08-13T09:28:03.943Z,4616
2018-08-13T09:29:14.056Z,4640
2018-08-13T09:30:23.859Z,4636
2018-08-13T09:31:33.418Z,4660
2018-08-13T09:32:43.258Z,4660
2018-08-13T09:33:53.456Z,4688
2018-08-13T09:35:03.301Z,4672
2018-08-13T09:36:13.389Z,4696
2018-08-13T09:37:23.221Z,4720
2018-08-13T09:38:33.317Z,4724
2018-08-13T09:39:43.463Z,4732
2018-08-13T09:40:53.570Z,4728
2018-08-13T09:42:03.646Z,4728
2018-08-13T09:43:13.673Z,4740
2018-08-13T09:44:23.746Z,4768
2018-08-13T09:45:33.411Z,4776
2018-08-13T09:46:43.506Z,4788
2018-08-13T09:47:53.392Z,4808
2018-08-13T09:49:03.224Z,4792
2018-08-13T09:50:13.061Z,4816
2018-08-13T09:51:22.922Z,4840
2018-08-13T09:52:33.001Z,4844
2018-08-13T09:53:42.951Z,4852
2018-08-13T09:54:52.784Z,4868
2018-08-13T09:56:02.870Z,4876
2018-08-13T09:57:12.688Z,4880
2018-08-13T09:58:22.752Z,4892
2018-08-13T09:59:32.832Z,4912
2018-08-13T10:00:42.660Z,4908
2018-08-13T10:01:52.743Z,4932
2018-08-13T10:03:02.843Z,4916
2018-08-13T10:04:12.949Z,4948
2018-08-13T10:05:23.062Z,4948
2018-08-13T10:06:33.151Z,4968
2018-08-13T10:07:42.976Z,4984
2018-08-13T10:08:53.070Z,4964
2018-08-13T10:10:03.158Z,4984
2018-08-13T10:11:13.006Z,4996
2018-08-13T10:12:22.855Z,5024
2018-08-13T10:13:32.722Z,5036
2018-08-13T10:14:42.840Z,5036
2018-08-13T10:15:52.940Z,5056
2018-08-13T10:17:03.344Z,5060
2018-08-13T10:18:13.181Z,5064
2018-08-13T10:19:23.022Z,5080
2018-08-13T10:20:33.179Z,5088
2018-08-13T10:21:43.105Z,5080
2018-08-13T10:22:53.215Z,5056
2018-08-13T10:24:03.310Z,5092
2018-08-13T10:25:13.178Z,5124
2018-08-13T10:26:23.397Z,5136
2018-08-13T10:27:33.499Z,5128
2018-08-13T10:28:43.622Z,5140
2018-08-13T10:29:54.310Z,5156
2018-08-13T10:31:04.403Z,5160
2018-08-13T10:32:14.554Z,5156
2018-08-13T10:33:24.832Z,5188
2018-08-13T10:34:34.944Z,5188
2018-08-13T10:35:45.057Z,5184
2018-08-13T10:36:55.197Z,5216
2018-08-13T10:38:05.471Z,5232
2018-08-13T10:39:15.883Z,5228
2018-08-13T10:40:25.985Z,5224
2018-08-13T10:41:36.080Z,5228
2018-08-13T10:42:45.948Z,5252
2018-08-13T10:43:56.089Z,5248
2018-08-13T10:45:05.663Z,5256
2018-08-13T10:46:15.760Z,5304
2018-08-13T10:47:25.889Z,5304
2018-08-13T10:48:35.979Z,5308
2018-08-13T10:49:46.390Z,5304
2018-08-13T10:50:56.249Z,5328
2018-08-13T10:52:06.337Z,5344
2018-08-13T10:53:16.431Z,5364
2018-08-13T10:54:26.516Z,5380
2018-08-13T10:55:36.361Z,5376
2018-08-13T10:56:46.528Z,5396
2018-08-13T10:57:56.643Z,5392
2018-08-13T10:59:06.485Z,5412
2018-08-13T11:00:16.605Z,5448
2018-08-13T11:01:26.801Z,5456
2018-08-13T11:02:36.921Z,5476
2018-08-13T11:03:46.771Z,5476
2018-08-13T11:04:56.845Z,5452
2018-08-13T11:06:06.685Z,5488
2018-08-13T11:07:16.819Z,5508
2018-08-13T11:08:26.920Z,5536
2018-08-13T11:09:37.027Z,5532
2018-08-13T11:10:47.133Z,5552
2018-08-13T11:11:57.240Z,5576
2018-08-13T11:13:07.379Z,5572
2018-08-13T11:14:17.216Z,5600
2018-08-13T11:15:27.347Z,5616
2018-08-13T11:16:37.445Z,5640
2018-08-13T11:17:47.554Z,5640
2018-08-13T11:18:57.691Z,5644
2018-08-13T11:20:07.780Z,5688
2018-08-13T11:21:17.621Z,5672
2018-08-13T11:22:27.444Z,5672
2018-08-13T11:23:37.538Z,5660
2018-08-13T11:24:47.420Z,5692
2018-08-13T11:25:57.543Z,5716
2018-08-13T11:27:07.635Z,5768
2018-08-13T11:28:17.763Z,5768
2018-08-13T11:29:27.864Z,5760
2018-08-13T11:30:38.128Z,5764
2018-08-13T11:31:47.967Z,5788
2018-08-13T11:32:58.076Z,5816
2018-08-13T11:34:08.109Z,5820
2018-08-13T11:35:17.968Z,5844
2018-08-13T11:36:28.168Z,5888
2018-08-13T11:37:38.273Z,5800
2018-08-13T11:38:48.389Z,5864
2018-08-13T11:39:58.494Z,5796
2018-08-13T11:41:08.606Z,5828
2018-08-13T11:42:18.453Z,5880
2018-08-13T11:43:28.569Z,5896
2018-08-13T11:44:38.398Z,5868
2018-08-13T11:45:48.236Z,5880
2018-08-13T11:46:58.072Z,5900
2018-08-13T11:48:08.218Z,5840
2018-08-13T11:49:18.575Z,5896
2018-08-13T11:50:28.661Z,5908
2018-08-13T11:51:38.756Z,5900
2018-08-13T11:52:48.827Z,5924
2018-08-13T11:53:58.979Z,5928
2018-08-13T11:55:09.081Z,5936
2018-08-13T11:56:19.251Z,5924
2018-08-13T11:57:29.133Z,5924
2018-08-13T11:58:39.302Z,5936
2018-08-13T11:59:49.442Z,5956
2018-08-13T12:00:59.727Z,5972
2018-08-13T12:02:10.455Z,5944
2018-08-13T12:03:20.578Z,5908
2018-08-13T12:04:30.685Z,5892
2018-08-13T12:05:40.822Z,5996
2018-08-13T12:06:50.907Z,6000
2018-08-13T12:08:01.003Z,5996
2018-08-13T12:09:10.607Z,6000
2018-08-13T12:10:20.699Z,6012
2018-08-13T12:11:30.824Z,6024
2018-08-13T12:12:40.892Z,6056
2018-08-13T12:13:50.972Z,6068
2018-08-13T12:15:01.069Z,6068
2018-08-13T12:16:11.177Z,6028
2018-08-13T12:17:21.254Z,5992
2018-08-13T12:18:31.366Z,6020
2018-08-13T12:19:41.154Z,6016
2018-08-13T12:20:51.269Z,5980
2018-08-13T12:22:01.106Z,6008
2018-08-13T12:23:11.187Z,5968
2018-08-13T12:24:21.339Z,5984
2018-08-13T12:25:31.461Z,6040
2018-08-13T12:26:41.558Z,6036
2018-08-13T12:27:51.895Z,6084
2018-08-13T12:29:02.003Z,6084
2018-08-13T12:30:12.084Z,6072
2018-08-13T12:31:21.901Z,6016
2018-08-13T12:32:31.772Z,6040
2018-08-13T12:33:41.592Z,5992
2018-08-13T12:34:51.493Z,5960
2018-08-13T12:36:01.595Z,5944
2018-08-13T12:37:11.447Z,5968
2018-08-13T12:38:21.544Z,5956
2018-08-13T12:39:31.657Z,5924
2018-08-13T12:40:41.762Z,5860
2018-08-13T12:41:51.890Z,5912
2018-08-13T12:43:01.726Z,5908
2018-08-13T12:44:11.828Z,5860
2018-08-13T12:45:21.926Z,5840
2018-08-13T12:46:32.063Z,5780
2018-08-13T12:47:42.150Z,5856
2018-08-13T12:48:52.243Z,5776
2018-08-13T12:50:02.331Z,5800
2018-08-13T12:51:12.848Z,5788
2018-08-13T12:52:22.934Z,5712
2018-08-13T12:53:33.024Z,5756
2018-08-13T12:54:42.861Z,5796
2018-08-13T12:55:52.970Z,5736
2018-08-13T12:57:02.875Z,5692
2018-08-13T12:58:13.084Z,5704
2018-08-13T12:59:23.183Z,5680
2018-08-13T13:00:33.018Z,5704
2018-08-13T13:01:42.839Z,5748
2018-08-13T13:02:52.936Z,5704
2018-08-13T13:04:03.008Z,5656
2018-08-13T13:05:13.137Z,5676
2018-08-13T13:06:22.978Z,5688
2018-08-13T13:07:32.808Z,5656
2018-08-13T13:08:42.659Z,5644
2018-08-13T13:09:52.806Z,5592
2018-08-13T13:11:03.097Z,5564
2018-08-13T13:12:12.909Z,5604
2018-08-13T13:13:22.736Z,5544
2018-08-13T13:14:32.567Z,5532
2018-08-13T13:15:42.737Z,5536
2018-08-13T13:16:52.818Z,5500
2018-08-13T13:18:02.977Z,5500
2018-08-13T13:19:12.809Z,5388
2018-08-13T13:20:22.951Z,5324
2018-08-13T13:21:32.908Z,5520
2018-08-13T13:22:42.983Z,5440
2018-08-13T13:23:53.058Z,5432
2018-08-13T13:25:03.301Z,5496
2018-08-13T13:26:13.423Z,5468
2018-08-13T13:27:23.255Z,5440
2018-08-13T13:28:33.343Z,5420
2018-08-13T13:29:43.427Z,5408
2018-08-13T13:30:53.537Z,5400
2018-08-13T13:32:03.383Z,5488
2018-08-13T13:33:13.540Z,5476
2018-08-13T13:34:23.357Z,5412
2018-08-13T13:35:32.924Z,5356
2018-08-13T13:36:43.003Z,5304
2018-08-13T13:37:53.091Z,5268
2018-08-13T13:39:03.220Z,5256
2018-08-13T13:40:13.429Z,5336
2018-08-13T13:41:23.308Z,5364
2018-08-13T13:42:33.408Z,5296
2018-08-13T13:43:43.498Z,5296
2018-08-13T13:44:53.385Z,5260
2018-08-13T13:46:03.211Z,5232
2018-08-13T13:47:13.492Z,5236
2018-08-13T13:48:23.311Z,5220
2018-08-13T13:49:33.443Z,5212
2018-08-13T13:50:43.283Z,5140
2018-08-13T13:51:53.666Z,5164
2018-08-13T13:53:03.810Z,5140
2018-08-13T13:54:13.901Z,5092
2018-08-13T13:55:24.026Z,5100
2018-08-13T13:56:34.191Z,5036
2018-08-13T13:57:44.009Z,5048
2018-08-13T13:58:53.853Z,5060
2018-08-13T14:00:03.446Z,5052
2018-08-13T14:01:13.574Z,5012
2018-08-13T14:02:23.723Z,5008
2018-08-13T14:03:33.801Z,4988
2018-08-13T14:04:43.641Z,5008
2018-08-13T14:05:53.778Z,4980
2018-08-13T14:07:03.871Z,4944
2018-08-13T14:08:13.781Z,4924
2018-08-13T14:09:23.634Z,4924
2018-08-13T14:10:33.456Z,4888
2018-08-13T14:11:43.555Z,4888
2018-08-13T14:12:53.683Z,4892
2018-08-13T14:14:03.810Z,4836
2018-08-13T14:15:13.640Z,4840
2018-08-13T14:16:23.459Z,4852
2018-08-13T14:17:33.749Z,4844
2018-08-13T14:18:44.014Z,4812
2018-08-13T14:19:54.122Z,4788
2018-08-13T14:21:04.230Z,4768
2018-08-13T14:22:14.078Z,4724
2018-08-13T14:23:24.188Z,4708
2018-08-13T14:24:34.292Z,4680
2018-08-13T14:25:44.467Z,4688
2018-08-13T14:26:54.567Z,4676
2018-08-13T14:28:04.995Z,4636
2018-08-13T14:29:15.340Z,4624
2018-08-13T14:30:25.199Z,4600
2018-08-13T14:31:35.600Z,4560
2018-08-13T14:32:45.746Z,4556
2018-08-13T14:33:55.862Z,4492
2018-08-13T14:35:05.962Z,4468
2018-08-13T14:36:16.062Z,4504
2018-08-13T14:37:26.223Z,4436
2018-08-13T14:38:36.317Z,4440
2018-08-13T14:39:46.449Z,4428
2018-08-13T14:40:56.753Z,4420
2018-08-13T14:42:06.868Z,4428
2018-08-13T14:43:16.971Z,4336
2018-08-13T14:44:27.053Z,4272
2018-08-13T14:45:37.145Z,4296
2018-08-13T14:46:47.356Z,4356
2018-08-13T14:47:57.451Z,4332
2018-08-13T14:49:07.694Z,4284
2018-08-13T14:50:17.542Z,4272
2018-08-13T14:51:27.783Z,4264
2018-08-13T14:52:37.940Z,4244
2018-08-13T14:53:48.019Z,4216
2018-08-13T14:54:58.121Z,4152
2018-08-13T14:56:08.347Z,4140
2018-08-13T14:57:18.496Z,4152
2018-08-13T14:58:28.594Z,4180
2018-08-13T14:59:38.763Z,4152
2018-08-13T15:00:48.595Z,4084
2018-08-13T15:01:58.687Z,4092
2018-08-13T15:03:08.806Z,4068
2018-08-13T15:04:18.913Z,4068
2018-08-13T15:05:29.087Z,4020
2018-08-13T15:06:39.278Z,3960
2018-08-13T15:07:49.387Z,3956
2018-08-13T15:08:58.706Z,3944
2018-08-13T15:10:08.792Z,3952
2018-08-13T15:11:18.875Z,3952
2018-08-13T15:12:28.701Z,3960
2018-08-13T15:13:38.811Z,3920
2018-08-13T15:14:48.891Z,3880
2018-08-13T15:15:58.982Z,3760
2018-08-13T15:17:09.065Z,3852
2018-08-13T15:18:19.133Z,3844
2018-08-13T15:19:29.233Z,3852
2018-08-13T15:20:39.318Z,3840
2018-08-13T15:21:49.412Z,3820
2018-08-13T15:22:59.521Z,3772
2018-08-13T15:24:09.609Z,3732
2018-08-13T15:25:19.752Z,3668
2018-08-13T15:26:29.844Z,3624
2018-08-13T15:27:41.027Z,3612
2018-08-13T15:28:51.412Z,3616
2018-08-13T15:30:01.740Z,3624
2018-08-13T15:31:11.904Z,3676
2018-08-13T15:32:21.993Z,3660
2018-08-13T15:33:32.090Z,3644
2018-08-13T15:34:42.464Z,3596
2018-08-13T15:35:52.602Z,3552
2018-08-13T15:37:02.441Z,3528
2018-08-13T15:38:12.528Z,3516
2018-08-13T15:39:22.624Z,3492
2018-08-13T15:40:32.503Z,3420
2018-08-13T15:41:42.587Z,3436
2018-08-13T15:42:52.427Z,3416
2018-08-13T15:44:02.521Z,3484
2018-08-13T15:45:12.629Z,3428
2018-08-13T15:46:22.489Z,3416
2018-08-13T15:47:32.634Z,3388
2018-08-13T15:48:42.713Z,3384
2018-08-13T15:49:52.293Z,3364
2018-08-13T15:51:02.361Z,3320
2018-08-13T15:52:12.500Z,3336
2018-08-13T15:53:22.597Z,3308
2018-08-13T15:54:32.171Z,3296
2018-08-13T15:55:42.703Z,3280
2018-08-13T15:56:53.027Z,3228
2018-08-13T15:58:03.232Z,3216
2018-08-13T15:59:12.811Z,3228
2018-08-13T16:00:22.898Z,3184
2018-08-13T16:01:33.145Z,3152
2018-08-13T16:02:43.239Z,3152
2018-08-13T16:03:53.344Z,3132
2018-08-13T16:05:03.435Z,3096
2018-08-13T16:06:13.339Z,3056
2018-08-13T16:07:23.224Z,3032
2018-08-13T16:08:33.328Z,2996
2018-08-13T16:09:42.899Z,2964
2018-08-13T16:10:52.985Z,2928
2018-08-13T16:12:03.095Z,2900
2018-08-13T16:13:12.690Z,2856
2018-08-13T16:14:22.795Z,2848
2018-08-13T16:15:32.987Z,2816
2018-08-13T16:16:43.302Z,2756
2018-08-13T16:17:53.139Z,2732
2018-08-13T16:19:03.263Z,2632
2018-08-13T16:20:13.356Z,2604
2018-08-13T16:21:23.460Z,2576
2018-08-13T16:22:33.567Z,2540